Terminal Aerodrome Forecast
Issued by NWS Albany, NY

Home | Current Version | Previous Version | Text Only | Print | Product List | Glossary On
Versions: 1 2 3 4 5 6 7 8 9 10 11 12 13 14 15 16
000
FTUS41 KALY 251405 AAA
TAFALB
TAF AMD
KALB 251405Z 2514/2612 17011KT P6SM BKN080 BKN220 BKN260
     FM251700 17012G18KT P6SM VCSH BKN060 OVC100
     FM260200 18007KT P6SM VCSH SCT020 BKN040
     FM260800 17005KT P6SM VCSH SCT008 BKN020 OVC040=

USA.gov is the U.S. government's official web portal to all federal, state and local government web resources and services.